Time;durP1;ratioP1;P1;durP2;ratioP2;P2;SDS_P1;SDS_P2;PMS_P1;PMS_P2;Temp;Humidity;BMP_temperature;BMP_pressure;BME280_temperature;BME280_humidity;BME280_pressure;Samples;Min_cycle;Max_cycle;Signal;HPM_P1;HPM_P2
2022/01/03 00:01:06;;;;;;;25.27;13.70;;;;;;;;;;5093740;28;20032;-69
2022/01/03 00:03:32;;;;;;;22.42;13.45;;;;;;;;;;5093834;28;20027;-69
2022/01/03 00:05:58;;;;;;;37.50;19.30;;;;;;;;;;5093418;28;20036;-69
2022/01/03 00:08:25;;;;;;;31.25;16.52;;;;;;;;;;5093580;28;20024;-69
2022/01/03 00:10:53;;;;;;;26.63;13.88;;;;;;;;;;5093519;28;20070;-69
2022/01/03 00:13:20;;;;;;;24.60;14.45;;;;;;;;;;5093223;28;20103;-69
2022/01/03 00:15:47;;;;;;;26.85;14.38;;;;;;;;;;5093727;28;20488;-69
2022/01/03 00:18:13;;;;;;;27.75;14.60;;;;;;;;;;5093618;28;20032;-69
2022/01/03 00:20:40;;;;;;;29.25;14.40;;;;;;;;;;5093049;28;20052;-69
2022/01/03 00:23:09;;;;;;;15.43;9.65;;;;;;;;;;5093495;28;20028;-69
2022/01/03 00:25:42;;;;;;;28.75;15.15;;;;;;;;;;5093155;28;20492;-69
2022/01/03 00:28:12;;;;;;;49.45;26.13;;;;;;;;;;5093057;28;20431;-70
2022/01/03 00:30:38;;;;;;;69.47;31.92;;;;;;;;;;5093964;28;20025;-69
2022/01/03 00:33:05;;;;;;;60.75;29.13;;;;;;;;;;5093471;28;20085;-69
2022/01/03 00:35:32;;;;;;;36.72;16.65;;;;;;;;;;5092930;28;20507;-69
2022/01/03 00:38:00;;;;;;;26.95;14.68;;;;;;;;;;5093645;28;20031;-69
2022/01/03 00:40:27;;;;;;;25.52;14.98;;;;;;;;;;5092838;28;20103;-69
2022/01/03 00:42:53;;;;;;;22.27;12.38;;;;;;;;;;5093214;28;20476;-69
2022/01/03 00:45:19;;;;;;;22.00;11.15;;;;;;;;;;5093371;28;20039;-69
2022/01/03 00:47:47;;;;;;;20.52;10.95;;;;;;;;;;5095565;28;20020;-69
2022/01/03 00:50:15;;;;;;;22.65;10.55;;;;;;;;;;5095981;28;20028;-70
2022/01/03 00:52:42;;;;;;;25.13;12.52;;;;;;;;;;5097191;28;20012;-69
2022/01/03 00:55:08;;;;;;;22.05;11.80;;;;;;;;;;5096813;28;20021;-69
2022/01/03 00:57:44;;;;;;;20.38;10.85;;;;;;;;;;5097332;28;20024;-69
2022/01/03 01:00:10;;;;;;;37.85;20.35;;;;;;;;;;5097276;28;20027;-69
2022/01/03 01:02:37;;;;;;;37.33;20.52;;;;;;;;;;5096563;28;20028;-69
2022/01/03 01:05:05;;;;;;;34.65;18.40;;;;;;;;;;5097166;28;20123;-69
2022/01/03 01:07:32;;;;;;;50.47;28.02;;;;;;;;;;5097021;28;20016;-69
2022/01/03 01:10:03;;;;;;;44.30;27.48;;;;;;;;;;5096489;28;20365;-69
2022/01/03 01:12:30;;;;;;;41.10;24.85;;;;;;;;;;5097020;28;20017;-69
2022/01/03 01:14:56;;;;;;;40.50;22.50;;;;;;;;;;5096793;28;20096;-69
2022/01/03 01:17:25;;;;;;;39.33;21.40;;;;;;;;;;5096445;28;20048;-69
2022/01/03 01:19:52;;;;;;;24.80;14.18;;;;;;;;;;5096754;28;20028;-69
2022/01/03 01:22:20;;;;;;;21.27;12.55;;;;;;;;;;5096614;28;20023;-69
2022/01/03 01:24:58;;;;;;;23.13;13.25;;;;;;;;;;5096430;28;20052;-69
2022/01/03 01:30:11;;;;;;;19.17;10.63;;;;;;;;;;5096108;28;20439;-69
2022/01/03 01:32:42;;;;;;;20.65;10.25;;;;;;;;;;5096519;28;20031;-69
2022/01/03 01:35:09;;;;;;;15.00;8.90;;;;;;;;;;5096812;28;20024;-70
2022/01/03 01:37:36;;;;;;;13.32;7.65;;;;;;;;;;5096001;28;20091;-69
2022/01/03 01:40:03;;;;;;;13.60;7.32;;;;;;;;;;5112041;28;20533;-69
2022/01/03 01:42:31;;;;;;;13.70;6.97;;;;;;;;;;5096454;28;20024;-69
2022/01/03 01:44:59;;;;;;;13.32;6.47;;;;;;;;;;5111554;28;20028;-69
2022/01/03 01:47:27;;;;;;;13.77;6.90;;;;;;;;;;5096160;28;20017;-70
2022/01/03 01:49:54;;;;;;;12.80;7.07;;;;;;;;;;5096169;28;20020;-69
2022/01/03 01:52:22;;;;;;;11.60;6.40;;;;;;;;;;5095696;28;20330;-70
2022/01/03 01:54:51;;;;;;;14.05;7.68;;;;;;;;;;5096168;28;20435;-70
2022/01/03 01:57:18;;;;;;;15.25;7.10;;;;;;;;;;5095477;28;20021;-70
2022/01/03 02:00:04;;;;;;;15.13;8.05;;;;;;;;;;5095563;28;20104;-69
2022/01/03 02:02:37;;;;;;;16.35;8.60;;;;;;;;;;5095901;28;20107;-69
2022/01/03 02:05:14;;;;;;;16.58;7.97;;;;;;;;;;5095347;28;20028;-69
2022/01/03 02:07:46;;;;;;;18.27;8.05;;;;;;;;;;5095876;28;20026;-69
2022/01/03 02:10:14;;;;;;;14.88;8.00;;;;;;;;;;5095797;28;20507;-69
2022/01/03 02:12:48;;;;;;;20.33;9.65;;;;;;;;;;5095358;28;20095;-69
2022/01/03 02:15:16;;;;;;;27.83;11.65;;;;;;;;;;5095600;28;20020;-70
2022/01/03 02:17:45;;;;;;;24.33;11.55;;;;;;;;;;5095573;28;20024;-69
2022/01/03 02:20:13;;;;;;;18.98;9.77;;;;;;;;;;5095225;28;20024;-69
2022/01/03 02:22:41;;;;;;;21.50;10.10;;;;;;;;;;5095554;28;20095;-69
2022/01/03 02:25:08;;;;;;;21.80;9.75;;;;;;;;;;5093845;28;20056;-69
2022/01/03 02:27:35;;;;;;;27.75;13.48;;;;;;;;;;5095024;28;20031;-69
2022/01/03 02:30:01;;;;;;;17.08;10.50;;;;;;;;;;5095653;28;20024;-69
2022/01/03 02:32:28;;;;;;;18.20;9.27;;;;;;;;;;5095325;28;20028;-70
2022/01/03 02:34:54;;;;;;;15.18;8.45;;;;;;;;;;5110491;28;20030;-70
2022/01/03 02:37:23;;;;;;;15.50;8.07;;;;;;;;;;5095248;28;20365;-70
2022/01/03 02:39:49;;;;;;;15.48;8.43;;;;;;;;;;5094909;28;20477;-69
2022/01/03 02:42:18;;;;;;;15.75;8.23;;;;;;;;;;5095155;28;20422;-69
2022/01/03 02:44:44;;;;;;;18.98;10.55;;;;;;;;;;5095476;28;20024;-69
2022/01/03 02:47:10;;;;;;;23.27;12.43;;;;;;;;;;5094569;28;20020;-70
2022/01/03 02:49:36;;;;;;;24.92;11.82;;;;;;;;;;5095079;28;20031;-70
2022/01/03 02:52:02;;;;;;;26.42;12.35;;;;;;;;;;5094915;28;20024;-70
2022/01/03 02:54:29;;;;;;;26.88;13.13;;;;;;;;;;5094648;28;20431;-70
2022/01/03 02:56:56;;;;;;;24.35;13.20;;;;;;;;;;5095341;28;20023;-70
2022/01/03 02:59:23;;;;;;;28.33;12.55;;;;;;;;;;5095123;28;20024;-69
2022/01/03 03:01:49;;;;;;;28.33;14.90;;;;;;;;;;5094408;28;20063;-69
2022/01/03 03:04:15;;;;;;;19.15;10.93;;;;;;;;;;5094604;28;20066;-69
2022/01/03 03:06:41;;;;;;;15.95;8.85;;;;;;;;;;5094824;28;20032;-69
2022/01/03 03:09:08;;;;;;;13.13;8.52;;;;;;;;;;5093349;28;20020;-69
2022/01/03 03:11:35;;;;;;;16.08;8.55;;;;;;;;;;5094908;28;20020;-69
2022/01/03 03:14:02;;;;;;;16.83;8.85;;;;;;;;;;5094555;28;20472;-69
2022/01/03 03:16:28;;;;;;;21.23;10.57;;;;;;;;;;5094199;28;20024;-70
2022/01/03 03:18:54;;;;;;;20.02;9.93;;;;;;;;;;5094636;28;20046;-69
2022/01/03 03:21:21;;;;;;;13.05;7.95;;;;;;;;;;5110096;28;20043;-69
2022/01/03 03:23:47;;;;;;;18.23;10.05;;;;;;;;;;5093725;28;20036;-69
2022/01/03 03:26:14;;;;;;;26.48;10.85;;;;;;;;;;5094357;28;20078;-69
2022/01/03 03:28:40;;;;;;;17.88;10.43;;;;;;;;;;5094223;28;20100;-69
2022/01/03 03:31:06;;;;;;;20.20;11.45;;;;;;;;;;5093776;28;20043;-69
2022/01/03 03:33:32;;;;;;;17.48;10.07;;;;;;;;;;5092926;28;20020;-69
2022/01/03 03:35:59;;;;;;;19.52;9.52;;;;;;;;;;5094008;28;20047;-69
2022/01/03 03:38:26;;;;;;;23.23;12.75;;;;;;;;;;5094113;28;20070;-69
2022/01/03 03:40:57;;;;;;;19.23;10.88;;;;;;;;;;5094015;28;20031;-69
2022/01/03 03:43:23;;;;;;;20.65;9.93;;;;;;;;;;5093713;28;20028;-69
2022/01/03 03:45:49;;;;;;;17.55;9.13;;;;;;;;;;5109523;28;20032;-69
2022/01/03 03:48:16;;;;;;;18.15;9.43;;;;;;;;;;5094153;28;20020;-69
2022/01/03 03:50:43;;;;;;;15.65;8.98;;;;;;;;;;5109178;28;20366;-70
2022/01/03 03:53:09;;;;;;;26.55;14.30;;;;;;;;;;5093867;28;20031;-70
2022/01/03 03:55:36;;;;;;;28.63;15.32;;;;;;;;;;5093888;28;20024;-70
2022/01/03 03:58:03;;;;;;;19.92;10.60;;;;;;;;;;5093381;28;20466;-69
2022/01/03 04:00:30;;;;;;;23.70;12.15;;;;;;;;;;5093712;28;20034;-69
2022/01/03 04:02:56;;;;;;;20.98;10.70;;;;;;;;;;5094254;28;20475;-69
2022/01/03 04:05:22;;;;;;;23.17;9.85;;;;;;;;;;5093183;28;20035;-69
2022/01/03 04:07:48;;;;;;;15.02;9.27;;;;;;;;;;5093698;28;20476;-69
2022/01/03 04:10:18;;;;;;;23.90;10.95;;;;;;;;;;5109266;28;20063;-69
2022/01/03 04:12:45;;;;;;;16.38;9.40;;;;;;;;;;5093206;28;20042;-69
2022/01/03 04:15:12;;;;;;;19.83;10.40;;;;;;;;;;5093566;28;20058;-69
2022/01/03 04:17:38;;;;;;;20.98;11.18;;;;;;;;;;5092164;28;20415;-69
2022/01/03 04:20:05;;;;;;;20.48;10.93;;;;;;;;;;5092864;28;20020;-71
2022/01/03 04:22:31;;;;;;;16.45;9.65;;;;;;;;;;5093411;28;20383;-69
2022/01/03 04:24:57;;;;;;;21.27;9.30;;;;;;;;;;5093151;28;20102;-69
2022/01/03 04:27:24;;;;;;;22.85;11.55;;;;;;;;;;5093004;28;20106;-69
2022/01/03 04:29:50;;;;;;;21.67;9.65;;;;;;;;;;5093371;28;20472;-69
2022/01/03 04:32:16;;;;;;;13.93;7.97;;;;;;;;;;5092924;28;20035;-69
2022/01/03 04:34:42;;;;;;;14.27;6.95;;;;;;;;;;5093334;28;20028;-69
2022/01/03 04:37:09;;;;;;;15.77;8.65;;;;;;;;;;5093314;28;20462;-69
2022/01/03 04:39:35;;;;;;;16.42;8.38;;;;;;;;;;5093350;28;20031;-69
2022/01/03 04:42:02;;;;;;;22.15;10.38;;;;;;;;;;5093292;28;20116;-69
2022/01/03 04:44:28;;;;;;;18.35;10.43;;;;;;;;;;5093137;28;20028;-69
2022/01/03 04:46:55;;;;;;;31.48;16.45;;;;;;;;;;5092936;28;20059;-69
2022/01/03 04:49:21;;;;;;;35.80;20.15;;;;;;;;;;5091850;28;20020;-69
2022/01/03 04:51:48;;;;;;;38.75;20.95;;;;;;;;;;5093163;28;20082;-70
2022/01/03 04:54:14;;;;;;;36.08;18.60;;;;;;;;;;5092819;28;20024;-70
2022/01/03 04:56:40;;;;;;;31.10;15.63;;;;;;;;;;5093180;28;20371;-69
2022/01/03 04:59:06;;;;;;;16.65;8.45;;;;;;;;;;5093062;28;20039;-69
2022/01/03 05:01:32;;;;;;;12.05;6.95;;;;;;;;;;5092689;28;20020;-69
2022/01/03 05:03:59;;;;;;;11.35;6.50;;;;;;;;;;5093062;28;20107;-69
2022/01/03 05:06:25;;;;;;;26.40;17.60;;;;;;;;;;5092979;28;20426;-69
2022/01/03 05:08:51;;;;;;;22.17;13.18;;;;;;;;;;5092703;28;20031;-69
2022/01/03 05:11:17;;;;;;;23.50;13.27;;;;;;;;;;5092994;28;20476;-70
2022/01/03 05:13:44;;;;;;;44.05;25.75;;;;;;;;;;5092991;28;20024;-69
2022/01/03 05:16:10;;;;;;;25.50;17.38;;;;;;;;;;5092566;28;20024;-69
2022/01/03 05:18:36;;;;;;;32.22;17.15;;;;;;;;;;5092887;28;20044;-69
2022/01/03 05:21:03;;;;;;;24.30;12.82;;;;;;;;;;5092879;28;20547;-69
2022/01/03 05:23:30;;;;;;;20.13;11.43;;;;;;;;;;5092254;28;20024;-68
2022/01/03 05:25:56;;;;;;;14.60;8.27;;;;;;;;;;5092985;28;20025;-69
2022/01/03 05:28:22;;;;;;;15.20;8.10;;;;;;;;;;5092785;28;20039;-69
2022/01/03 05:30:48;;;;;;;15.48;9.02;;;;;;;;;;5092377;28;20491;-69
2022/01/03 05:33:14;;;;;;;30.00;15.93;;;;;;;;;;5095846;28;20028;-69
2022/01/03 05:35:41;;;;;;;36.20;19.75;;;;;;;;;;5095976;28;20381;-69
2022/01/03 05:38:07;;;;;;;30.85;17.85;;;;;;;;;;5096328;28;20380;-69
2022/01/03 05:40:33;;;;;;;32.40;18.50;;;;;;;;;;5096594;28;20032;-69
2022/01/03 05:42:59;;;;;;;40.63;20.17;;;;;;;;;;5095911;28;20020;-68
2022/01/03 05:45:26;;;;;;;47.22;24.25;;;;;;;;;;5094845;28;20484;-68
2022/01/03 05:47:52;;;;;;;55.00;29.45;;;;;;;;;;5096325;28;20032;-69
2022/01/03 05:50:18;;;;;;;54.17;31.20;;;;;;;;;;5094431;28;20035;-68
2022/01/03 05:52:45;;;;;;;54.10;29.50;;;;;;;;;;5096356;28;20058;-69
2022/01/03 05:55:12;;;;;;;69.95;34.88;;;;;;;;;;5096067;28;20034;-69
2022/01/03 05:57:39;;;;;;;50.58;28.65;;;;;;;;;;5094374;28;20031;-68
2022/01/03 06:00:07;;;;;;;52.92;30.45;;;;;;;;;;5095933;28;20395;-68
2022/01/03 06:02:38;;;;;;;47.13;27.65;;;;;;;;;;5095925;28;20031;-68
2022/01/03 06:05:06;;;;;;;49.45;26.25;;;;;;;;;;5095552;28;20092;-70
2022/01/03 06:07:33;;;;;;;49.15;26.77;;;;;;;;;;5095753;28;20445;-68
2022/01/03 06:09:59;;;;;;;44.33;25.58;;;;;;;;;;5095670;28;20020;-68
2022/01/03 06:12:25;;;;;;;39.40;22.15;;;;;;;;;;5095269;28;20035;-68
2022/01/03 06:14:52;;;;;;;32.58;17.35;;;;;;;;;;5095918;28;20020;-69
2022/01/03 06:17:20;;;;;;;32.17;13.05;;;;;;;;;;5095472;28;20368;-69
2022/01/03 06:19:46;;;;;;;20.13;11.52;;;;;;;;;;5095177;28;20082;-69
2022/01/03 06:22:13;;;;;;;38.20;18.92;;;;;;;;;;5095919;28;20024;-69
2022/01/03 06:24:40;;;;;;;31.05;15.40;;;;;;;;;;5095267;28;20040;-69
2022/01/03 06:27:06;;;;;;;27.75;13.52;;;;;;;;;;5095013;28;20084;-69
2022/01/03 06:29:33;;;;;;;32.13;18.92;;;;;;;;;;5095340;28;20024;-69
2022/01/03 06:31:59;;;;;;;35.28;19.08;;;;;;;;;;5095022;28;20024;-70
2022/01/03 06:34:25;;;;;;;27.45;17.25;;;;;;;;;;5095246;28;20032;-69
2022/01/03 06:36:51;;;;;;;37.35;20.08;;;;;;;;;;5095343;28;20050;-69
2022/01/03 06:39:18;;;;;;;44.15;25.60;;;;;;;;;;5094757;28;20103;-69
2022/01/03 06:41:44;;;;;;;51.78;29.73;;;;;;;;;;5095129;28;20044;-70
2022/01/03 06:44:11;;;;;;;49.83;26.67;;;;;;;;;;5095160;28;20032;-69
2022/01/03 06:46:38;;;;;;;47.17;24.38;;;;;;;;;;5094726;28;20099;-69
2022/01/03 06:49:05;;;;;;;40.28;25.40;;;;;;;;;;5095062;28;20024;-70
2022/01/03 06:51:34;;;;;;;45.55;29.70;;;;;;;;;;5094884;28;20020;-70
2022/01/03 06:54:01;;;;;;;44.47;28.17;;;;;;;;;;5094727;28;20035;-70
2022/01/03 06:56:28;;;;;;;32.78;20.33;;;;;;;;;;5093556;28;20092;-69
2022/01/03 06:58:54;;;;;;;31.33;19.23;;;;;;;;;;5094882;28;20047;-69
2022/01/03 07:01:20;;;;;;;29.80;18.38;;;;;;;;;;5094336;28;20024;-69
2022/01/03 07:03:46;;;;;;;37.10;20.83;;;;;;;;;;5094727;28;20500;-69
2022/01/03 07:06:12;;;;;;;40.50;25.85;;;;;;;;;;5094802;28;20063;-69
2022/01/03 07:08:39;;;;;;;46.22;28.65;;;;;;;;;;5094243;28;20024;-69
2022/01/03 07:11:05;;;;;;;46.90;26.45;;;;;;;;;;5094900;28;20434;-70
2022/01/03 07:13:41;;;;;;;59.95;34.50;;;;;;;;;;5094762;28;20398;-69
2022/01/03 07:18:59;;;;;;;96.97;53.83;;;;;;;;;;5094552;28;20113;-70
2022/01/03 07:21:25;;;;;;;;;;;;;;;;;;5094561;28;20024;-69
2022/01/03 07:23:51;;;;;;;66.15;36.20;;;;;;;;;;5094118;28;20057;-70
2022/01/03 07:26:17;;;;;;;51.15;26.90;;;;;;;;;;5094373;28;20432;-69
2022/01/03 07:28:44;;;;;;;50.00;27.10;;;;;;;;;;5093916;28;20099;-70
2022/01/03 07:31:10;;;;;;;83.63;44.72;;;;;;;;;;5094265;28;20081;-71
2022/01/03 07:33:36;;;;;;;62.50;35.25;;;;;;;;;;5094126;28;20069;-70
2022/01/03 07:36:02;;;;;;;52.90;33.63;;;;;;;;;;5093702;28;20097;-70
2022/01/03 07:38:28;;;;;;;63.03;32.25;;;;;;;;;;5094045;28;20032;-70
2022/01/03 07:40:55;;;;;;;44.40;26.05;;;;;;;;;;5092789;28;20028;-70
2022/01/03 07:43:21;;;;;;;44.85;26.30;;;;;;;;;;5093960;28;20048;-70
2022/01/03 07:45:47;;;;;;;46.97;26.80;;;;;;;;;;5093895;28;20028;-70
2022/01/03 07:48:13;;;;;;;29.77;18.50;;;;;;;;;;5092611;28;20500;-70
2022/01/03 07:50:40;;;;;;;29.80;17.45;;;;;;;;;;5093550;28;20111;-71
2022/01/03 07:53:07;;;;;;;27.00;15.10;;;;;;;;;;5093847;28;20020;-71
2022/01/03 07:55:33;;;;;;;37.25;21.02;;;;;;;;;;5093730;28;20027;-71
2022/01/03 07:58:00;;;;;;;26.92;16.92;;;;;;;;;;5092160;28;20043;-71
2022/01/03 08:00:26;;;;;;;26.55;15.70;;;;;;;;;;5093722;28;20028;-70
2022/01/03 08:02:52;;;;;;;28.17;17.42;;;;;;;;;;5092361;28;20024;-70
2022/01/03 08:05:18;;;;;;;22.33;14.60;;;;;;;;;;5093179;28;20067;-70
2022/01/03 08:07:45;;;;;;;57.67;33.03;;;;;;;;;;5093752;28;20023;-70
2022/01/03 08:10:12;;;;;;;32.83;22.33;;;;;;;;;;5093832;28;20024;-70
2022/01/03 08:12:39;;;;;;;27.20;16.10;;;;;;;;;;5093265;28;20384;-70
2022/01/03 08:15:06;;;;;;;27.27;15.77;;;;;;;;;;5093505;28;20078;-70
2022/01/03 08:17:32;;;;;;;27.27;14.73;;;;;;;;;;5093252;28;20020;-70
2022/01/03 08:19:58;;;;;;;58.63;36.33;;;;;;;;;;5093621;28;20030;-70
2022/01/03 08:22:25;;;;;;;61.22;32.88;;;;;;;;;;5093472;28;20012;-71
2022/01/03 08:24:51;;;;;;;54.80;33.17;;;;;;;;;;5092778;28;20549;-70
2022/01/03 08:27:17;;;;;;;49.90;29.63;;;;;;;;;;5093649;28;20032;-70
2022/01/03 08:29:43;;;;;;;52.92;31.08;;;;;;;;;;5093646;28;20047;-70
2022/01/03 08:32:10;;;;;;;65.90;33.17;;;;;;;;;;5092954;28;20020;-70
2022/01/03 08:34:36;;;;;;;63.22;38.63;;;;;;;;;;5093624;28;20024;-70
2022/01/03 08:37:03;;;;;;;61.03;32.88;;;;;;;;;;5093558;28;20051;-71
2022/01/03 08:39:29;;;;;;;30.05;20.05;;;;;;;;;;5091748;28;20113;-71
2022/01/03 08:41:56;;;;;;;30.45;18.90;;;;;;;;;;5093407;28;20047;-71
2022/01/03 08:44:23;;;;;;;34.10;19.83;;;;;;;;;;5093236;28;20029;-70
2022/01/03 08:46:51;;;;;;;58.13;34.78;;;;;;;;;;5092878;28;20093;-70
2022/01/03 08:49:17;;;;;;;33.45;17.25;;;;;;;;;;5093576;28;20422;-70
2022/01/03 08:51:44;;;;;;;41.67;23.10;;;;;;;;;;5093299;28;20028;-71
2022/01/03 08:54:10;;;;;;;34.78;21.20;;;;;;;;;;5092822;28;20024;-71
2022/01/03 08:56:38;;;;;;;38.30;21.90;;;;;;;;;;5093275;28;20044;-71
2022/01/03 08:59:04;;;;;;;30.88;18.00;;;;;;;;;;5093320;28;20024;-71
2022/01/03 09:01:30;;;;;;;41.22;23.35;;;;;;;;;;5092692;28;20016;-70
2022/01/03 09:03:56;;;;;;;25.52;16.50;;;;;;;;;;5093035;28;20058;-70
2022/01/03 09:06:23;;;;;;;24.75;13.82;;;;;;;;;;5093493;28;20115;-70
2022/01/03 09:08:49;;;;;;;38.85;19.27;;;;;;;;;;5096648;28;20052;-70
2022/01/03 09:11:15;;;;;;;23.40;14.43;;;;;;;;;;5097145;28;20086;-71
2022/01/03 09:13:42;;;;;;;23.55;13.60;;;;;;;;;;5096763;28;20020;-71
2022/01/03 09:16:08;;;;;;;24.65;15.55;;;;;;;;;;5097054;28;20028;-72
2022/01/03 09:18:38;;;;;;;25.08;13.68;;;;;;;;;;5097141;28;20020;-71
2022/01/03 09:21:05;;;;;;;34.22;21.80;;;;;;;;;;5095133;28;20024;-70
2022/01/03 09:23:35;;;;;;;39.08;26.30;;;;;;;;;;5096515;28;20020;-69
2022/01/03 09:28:49;;;;;;;41.90;26.88;;;;;;;;;;5096374;28;20081;-70
2022/01/03 09:31:19;;;;;;;24.25;15.38;;;;;;;;;;5096578;28;20473;-70
2022/01/03 09:33:45;;;;;;;21.85;12.77;;;;;;;;;;5096627;28;20028;-70
2022/01/03 09:36:11;;;;;;;25.90;16.70;;;;;;;;;;5096079;28;20020;-70
2022/01/03 09:38:38;;;;;;;23.15;14.50;;;;;;;;;;5095132;28;20054;-70
2022/01/03 09:41:06;;;;;;;28.63;16.45;;;;;;;;;;5096409;28;20542;-71
2022/01/03 09:43:51;;;;;;;19.55;12.57;;;;;;;;;;5096001;28;20473;-70
2022/01/03 09:46:24;;;;;;;28.95;14.38;;;;;;;;;;5094938;28;20122;-68
2022/01/03 09:48:52;;;;;;;16.83;11.15;;;;;;;;;;5096199;28;20074;-70
2022/01/03 09:51:19;;;;;;;23.50;14.90;;;;;;;;;;5096143;28;20447;-70
2022/01/03 09:53:47;;;;;;;37.00;24.25;;;;;;;;;;5096194;28;20461;-71
2022/01/03 09:57:11;;;;;;;20.35;12.68;;;;;;;;;;5110866;27;20376;-69
2022/01/03 09:59:37;;;;;;;19.00;12.48;;;;;;;;;;5111137;28;20063;-69
2022/01/03 10:02:06;;;;;;;20.98;12.85;;;;;;;;;;5111176;28;20031;-69
2022/01/03 10:04:33;;;;;;;22.20;13.23;;;;;;;;;;5110650;28;20016;-70
2022/01/03 10:07:00;;;;;;;23.33;15.10;;;;;;;;;;5111116;28;20051;-71
2022/01/03 10:11:22;;;;;;;18.88;11.65;;;;;;;;;;5111088;27;20395;-70
2022/01/03 10:13:49;;;;;;;17.48;12.48;;;;;;;;;;5111463;28;20035;-70
2022/01/03 10:16:15;;;;;;;21.58;13.27;;;;;;;;;;5111237;28;20056;-70
2022/01/03 10:18:42;;;;;;;18.92;12.18;;;;;;;;;;5110841;28;20472;-70
2022/01/03 10:23:16;;;;;;;17.17;11.70;;;;;;;;;;5091904;27;20459;-69
2022/01/03 10:30:55;;;;;;;27.63;16.90;;;;;;;;;;5111932;27;20397;-70
2022/01/03 10:33:23;;;;;;;25.13;14.68;;;;;;;;;;5109882;28;20066;-69
2022/01/03 10:35:49;;;;;;;18.38;11.82;;;;;;;;;;5111079;28;20027;-71
2022/01/03 10:39:34;;;;;;;24.40;14.90;;;;;;;;;;5131555;27;20119;-70
2022/01/03 10:42:23;;;;;;;20.13;12.10;;;;;;;;;;5131781;27;20112;-70
2022/01/03 10:44:50;;;;;;;23.63;12.82;;;;;;;;;;5111156;28;20391;-70
2022/01/03 10:47:30;;;;;;;22.17;14.27;;;;;;;;;;5110844;28;20049;-70
2022/01/03 10:49:56;;;;;;;27.00;18.63;;;;;;;;;;5111320;28;20114;-70
2022/01/03 10:55:53;;;;;;;17.10;11.88;;;;;;;;;;5111258;27;20397;-71
2022/01/03 10:58:31;;;;;;;23.35;15.57;;;;;;;;;;5111008;28;20052;-69
2022/01/03 11:00:59;;;;;;;23.80;14.55;;;;;;;;;;5110869;28;20492;-71
2022/01/03 11:03:33;;;;;;;19.52;13.15;;;;;;;;;;5110878;28;20362;-70
2022/01/03 11:10:51;;;;;;;22.48;12.90;;;;;;;;;;5111587;27;20384;-71
2022/01/03 11:13:18;;;;;;;28.80;16.40;;;;;;;;;;5110830;28;20032;-71
2022/01/03 11:19:42;;;;;;;58.17;35.35;;;;;;;;;;5132269;27;20116;-70
2022/01/03 11:22:09;;;;;;;29.15;18.58;;;;;;;;;;5092541;28;20050;-70
2022/01/03 11:28:45;;;;;;;40.08;24.73;;;;;;;;;;5110835;27;20123;-70
2022/01/03 11:34:04;;;;;;;23.88;14.90;;;;;;;;;;5111668;27;20389;-69
2022/01/03 11:36:30;;;;;;;21.67;13.57;;;;;;;;;;5110720;28;20111;-69
2022/01/03 11:38:57;;;;;;;20.15;12.65;;;;;;;;;;5111061;28;20024;-69
2022/01/03 11:44:12;;;;;;;16.83;12.00;;;;;;;;;;5111438;27;20389;-69
2022/01/03 11:46:39;;;;;;;22.73;13.27;;;;;;;;;;5111150;28;20028;-70
2022/01/03 11:49:19;;;;;;;18.23;12.43;;;;;;;;;;5070602;28;20399;-69
2022/01/03 11:52:26;;;;;;;14.98;9.68;;;;;;;;;;5111919;27;20427;-69
2022/01/03 11:56:29;;;;;;;18.85;10.40;;;;;;;;;;5111114;27;20117;-69
2022/01/03 12:04:40;;;;;;;27.27;17.90;;;;;;;;;;5110985;28;20534;-69
2022/01/03 12:07:08;;;;;;;20.42;13.23;;;;;;;;;;5111032;28;20081;-69
2022/01/03 12:09:37;;;;;;;19.60;12.93;;;;;;;;;;5106711;28;20119;-68
2022/01/03 12:12:34;;;;;;;26.25;17.80;;;;;;;;;;5111101;27;20385;-69
2022/01/03 12:16:42;;;;;;;87.40;52.67;;;;;;;;;;5111428;27;20726;-70
2022/01/03 12:25:02;;;;;;;19.42;13.13;;;;;;;;;;5110843;27;20389;-68
2022/01/03 12:30:54;;;;;;;22.38;14.77;;;;;;;;;;5069831;28;20396;-71
2022/01/03 12:33:22;;;;;;;25.77;17.92;;;;;;;;;;5070449;28;20103;-71
2022/01/03 12:35:49;;;;;;;25.40;17.88;;;;;;;;;;5070465;28;20073;-70
2022/01/03 12:40:03;;;;;;;23.58;15.50;;;;;;;;;;5110971;27;20389;-68
2022/01/03 12:42:53;;;;;;;24.63;16.50;;;;;;;;;;5111047;28;20024;-70
2022/01/03 12:45:35;;;;;;;21.33;15.18;;;;;;;;;;5109348;28;20020;-69
2022/01/03 12:48:18;;;;;;;21.80;15.50;;;;;;;;;;5110698;28;20065;-69
2022/01/03 12:50:44;;;;;;;;;;;;;;;;;;5111180;28;20024;-70
2022/01/03 12:53:12;;;;;;;25.85;15.73;;;;;;;;;;5110443;28;19904;-69
2022/01/03 12:55:38;;;;;;;25.40;17.33;;;;;;;;;;5110720;28;20418;-71
2022/01/03 12:58:17;;;;;;;26.55;18.50;;;;;;;;;;5109107;28;20024;-69
2022/01/03 13:02:29;;;;;;;24.33;17.40;;;;;;;;;;5110509;27;20411;-68
2022/01/03 13:04:55;;;;;;;31.85;20.85;;;;;;;;;;5110962;28;20028;-68
2022/01/03 13:07:25;;;;;;;27.98;19.02;;;;;;;;;;5110563;28;20028;-68
2022/01/03 13:09:51;;;;;;;28.77;20.13;;;;;;;;;;5109311;28;20039;-69
2022/01/03 13:14:29;;;;;;;31.17;21.13;;;;;;;;;;5110440;27;20396;-67
2022/01/03 13:17:19;;;;;;;32.28;20.30;;;;;;;;;;5111294;27;20384;-71
2022/01/03 13:19:45;;;;;;;27.00;18.38;;;;;;;;;;5110753;28;20476;-68
2022/01/03 13:22:14;;;;;;;33.20;20.05;;;;;;;;;;5098038;28;20028;-68
2022/01/03 13:24:43;;;;;;;33.63;23.63;;;;;;;;;;5108359;28;20015;-69
2022/01/03 13:27:13;;;;;;;30.80;23.27;;;;;;;;;;5110151;28;20023;-67
2022/01/03 13:29:47;;;;;;;56.20;35.13;;;;;;;;;;5109655;28;20065;-68
2022/01/03 13:33:33;;;;;;;51.65;34.92;;;;;;;;;;5110686;27;20392;-69
2022/01/03 13:36:06;;;;;;;38.83;27.98;;;;;;;;;;5110090;28;20034;-70
2022/01/03 13:38:33;;;;;;;39.65;26.45;;;;;;;;;;5109694;28;20036;-72
2022/01/03 13:41:14;;;;;;;33.33;22.92;;;;;;;;;;5090317;27;20397;-72
2022/01/03 13:43:57;;;;;;;40.97;29.05;;;;;;;;;;5105761;28;20435;-74
2022/01/03 13:49:31;;;;;;;53.00;31.02;;;;;;;;;;5110122;28;20537;-74
2022/01/03 13:51:58;;;;;;;43.35;26.95;;;;;;;;;;5109649;28;20027;-74
2022/01/03 13:54:26;;;;;;;39.28;25.33;;;;;;;;;;5109552;28;20444;-74
2022/01/03 13:59:13;;;;;;;41.97;26.70;;;;;;;;;;5110792;27;20396;-70
2022/01/03 14:03:20;;;;;;;57.90;36.33;;;;;;;;;;5110554;27;20316;-69
2022/01/03 14:05:48;;;;;;;55.78;34.72;;;;;;;;;;5090548;28;20024;-70
2022/01/03 14:10:20;;;;;;;46.35;34.22;;;;;;;;;;5110447;27;20897;-72
2022/01/03 14:12:53;;;;;;;47.00;30.20;;;;;;;;;;5110991;28;20035;-73
2022/01/03 14:15:19;;;;;;;53.00;32.37;;;;;;;;;;5109448;28;20024;-72
2022/01/03 14:17:50;;;;;;;37.58;25.38;;;;;;;;;;5109272;28;20031;-70
2022/01/03 14:20:17;;;;;;;34.25;25.75;;;;;;;;;;5110725;28;20073;-72
2022/01/03 14:22:43;;;;;;;43.67;27.52;;;;;;;;;;5110806;28;20030;-70
2022/01/03 14:25:13;;;;;;;52.95;33.22;;;;;;;;;;5110286;28;20024;-73
2022/01/03 14:27:43;;;;;;;53.10;32.25;;;;;;;;;;5110893;28;20375;-71
2022/01/03 14:30:14;;;;;;;47.95;30.70;;;;;;;;;;5109701;28;20059;-71
2022/01/03 14:32:56;;;;;;;49.10;31.75;;;;;;;;;;5111155;27;20123;-71
2022/01/03 14:35:49;;;;;;;43.58;27.10;;;;;;;;;;5090603;28;20020;-73
2022/01/03 14:38:16;;;;;;;44.40;28.90;;;;;;;;;;5086471;28;20044;-71
2022/01/03 14:42:31;;;;;;;44.45;26.95;;;;;;;;;;5111363;27;20458;-73
2022/01/03 14:45:19;;;;;;;39.15;25.50;;;;;;;;;;5110606;28;20040;-73
2022/01/03 14:47:46;;;;;;;48.05;32.40;;;;;;;;;;5111249;28;20129;-72
2022/01/03 14:50:13;;;;;;;60.90;40.00;;;;;;;;;;5110413;28;20012;-72
2022/01/03 14:52:41;;;;;;;54.30;31.17;;;;;;;;;;5110566;28;20387;-73
2022/01/03 14:56:00;;;;;;;50.03;29.92;;;;;;;;;;5091740;27;20459;-72
2022/01/03 14:58:26;;;;;;;51.97;32.65;;;;;;;;;;5090147;28;20028;-70
2022/01/03 15:02:00;;;;;;;66.80;44.75;;;;;;;;;;5111040;27;20412;-73
2022/01/03 15:04:31;;;;;;;68.07;44.72;;;;;;;;;;5110928;28;20032;-71
2022/01/03 15:07:07;;;;;;;62.72;38.10;;;;;;;;;;5109632;28;20023;-70
2022/01/03 15:09:34;;;;;;;68.03;40.35;;;;;;;;;;5110782;28;20099;-71
2022/01/03 15:12:00;;;;;;;67.18;43.67;;;;;;;;;;5110711;28;20024;-70
2022/01/03 15:14:26;;;;;;;73.10;42.35;;;;;;;;;;5110257;28;20392;-70
2022/01/03 15:16:52;;;;;;;55.80;34.72;;;;;;;;;;5111030;28;20103;-70
2022/01/03 15:20:28;;;;;;;110.28;62.30;;;;;;;;;;5110486;27;20397;-72
2022/01/03 15:22:55;;;;;;;167.73;89.75;;;;;;;;;;5110962;28;20032;-70
2022/01/03 15:25:24;;;;;;;137.27;73.95;;;;;;;;;;5110785;28;20027;-70
2022/01/03 15:28:54;;;;;;;106.63;72.90;;;;;;;;;;5110958;27;20389;-71
2022/01/03 15:31:20;;;;;;;106.68;70.03;;;;;;;;;;5110677;28;20103;-71
2022/01/03 15:33:47;;;;;;;125.93;81.55;;;;;;;;;;5110320;28;20028;-71
2022/01/03 15:36:13;;;;;;;116.10;75.32;;;;;;;;;;5110787;28;20069;-72
2022/01/03 15:38:39;;;;;;;113.63;77.32;;;;;;;;;;5110826;28;20016;-71
2022/01/03 15:41:05;;;;;;;131.07;80.78;;;;;;;;;;5110568;28;20028;-70
2022/01/03 15:43:31;;;;;;;168.23;99.63;;;;;;;;;;5109507;28;20514;-72
2022/01/03 15:46:00;;;;;;;202.30;106.38;;;;;;;;;;5110628;28;20073;-72